Terminal Aerodrome Forecast
Issued by NWS

Home | Current Version | Previous Version | Text Only | Print | Product List | Glossary On
Versions: 1 2 3 4 5 6 7 8 9 10 11 12 13 14 15 16 17
441
FTUS43 KEAX 021141 CCA
TAFSTJ
TAF COR
KSTJ 021141Z 0212/0312 VRB02KT 2SM BR BKN002
     FM021400 01003KT P6SM FEW200=

USA.gov is the U.S. government's official web portal to all federal, state and local government web resources and services.